Time;durP1;ratioP1;P1;durP2;ratioP2;P2;SDS_P1;SDS_P2;PMS_P1;PMS_P2;Temp;Humidity;BMP_temperature;BMP_pressure;BME280_temperature;BME280_humidity;BME280_pressure;Samples;Min_cycle;Max_cycle;Signal;HPM_P1;HPM_P2
2024/01/19 00:01:25;;;;;;;5.95;0.80;;;;;;;;;;5026885;28;20138;-80
2024/01/19 00:03:51;;;;;;;8.80;1.17;;;;;;;;;;5067043;28;20049;-81
2024/01/19 00:06:17;;;;;;;5.78;1.30;;;;;;;;;;5043951;28;20123;-81
2024/01/19 00:08:43;;;;;;;7.55;0.80;;;;;;;;;;5052901;28;20035;-80
2024/01/19 00:11:16;;;;;;;7.70;1.35;;;;;;;;;;5054202;28;20083;-80
2024/01/19 00:13:42;;;;;;;5.68;1.25;;;;;;;;;;5068900;28;20208;-80
2024/01/19 00:16:08;;;;;;;1.58;0.70;;;;;;;;;;5055962;28;20043;-80
2024/01/19 00:18:35;;;;;;;4.18;0.73;;;;;;;;;;5058814;28;20398;-80
2024/01/19 00:21:01;;;;;;;4.47;1.15;;;;;;;;;;5051482;28;20055;-79
2024/01/19 00:23:27;;;;;;;4.88;0.98;;;;;;;;;;5051743;28;20044;-80
2024/01/19 00:25:53;;;;;;;2.83;1.60;;;;;;;;;;5049388;28;20040;-80
2024/01/19 00:28:19;;;;;;;4.75;1.00;;;;;;;;;;5054562;28;20127;-79
2024/01/19 00:30:45;;;;;;;8.55;1.17;;;;;;;;;;5053841;28;20051;-79
2024/01/19 00:33:11;;;;;;;8.75;1.00;;;;;;;;;;5055482;28;20047;-79
2024/01/19 00:35:37;;;;;;;5.97;0.90;;;;;;;;;;5072919;28;20560;-79
2024/01/19 00:38:04;;;;;;;9.50;0.98;;;;;;;;;;5056894;28;20032;-81
2024/01/19 00:40:30;;;;;;;4.68;0.88;;;;;;;;;;5036768;28;20078;-80
2024/01/19 00:42:56;;;;;;;3.28;0.68;;;;;;;;;;5036727;28;20283;-79
2024/01/19 00:45:22;;;;;;;4.70;0.63;;;;;;;;;;5054092;28;20472;-80
2024/01/19 00:47:48;;;;;;;4.78;1.50;;;;;;;;;;5062277;28;20036;-80
2024/01/19 00:50:15;;;;;;;5.60;0.63;;;;;;;;;;5057679;28;20047;-80
2024/01/19 00:52:41;;;;;;;4.57;0.90;;;;;;;;;;5055715;28;20044;-79
2024/01/19 00:55:07;;;;;;;6.13;0.93;;;;;;;;;;5038483;28;20070;-78
2024/01/19 00:57:33;;;;;;;2.10;0.57;;;;;;;;;;5051710;28;20063;-78
2024/01/19 00:59:59;;;;;;;1.15;0.60;;;;;;;;;;5057372;28;20051;-79
2024/01/19 01:02:28;;;;;;;3.22;0.80;;;;;;;;;;5060656;28;20089;-78
2024/01/19 01:04:57;;;;;;;1.50;0.57;;;;;;;;;;5055952;28;20036;-79
2024/01/19 01:07:24;;;;;;;0.85;0.52;;;;;;;;;;5061021;28;20032;-77
2024/01/19 01:09:50;;;;;;;7.65;0.93;;;;;;;;;;5052457;28;20044;-79
2024/01/19 01:12:17;;;;;;;5.60;0.65;;;;;;;;;;5072209;28;20036;-78
2024/01/19 01:14:46;;;;;;;2.65;0.82;;;;;;;;;;5052875;28;20035;-79
2024/01/19 01:17:13;;;;;;;7.07;1.00;;;;;;;;;;5074008;28;20602;-78
2024/01/19 01:19:39;;;;;;;5.80;1.60;;;;;;;;;;5056420;28;20127;-79
2024/01/19 01:22:05;;;;;;;2.83;0.70;;;;;;;;;;5075157;28;20035;-78
2024/01/19 01:24:32;;;;;;;3.78;0.70;;;;;;;;;;5075729;28;20083;-78
2024/01/19 01:26:58;;;;;;;1.88;0.90;;;;;;;;;;5058625;28;20039;-78
2024/01/19 01:29:24;;;;;;;4.60;1.00;;;;;;;;;;5075787;28;20148;-78
2024/01/19 01:31:51;;;;;;;3.60;0.60;;;;;;;;;;5069660;28;20491;-78
2024/01/19 01:34:17;;;;;;;3.72;0.40;;;;;;;;;;5061199;28;20044;-78
2024/01/19 01:36:43;;;;;;;2.83;0.57;;;;;;;;;;5072074;28;20060;-78
2024/01/19 01:39:12;;;;;;;5.03;1.30;;;;;;;;;;5041513;28;20047;-80
2024/01/19 01:41:41;;;;;;;2.13;0.40;;;;;;;;;;5072003;28;20036;-78
2024/01/19 01:44:07;;;;;;;6.30;1.17;;;;;;;;;;5072329;28;20054;-78
2024/01/19 01:46:33;;;;;;;3.85;0.80;;;;;;;;;;5073678;28;20032;-78
2024/01/19 01:48:59;;;;;;;7.13;1.02;;;;;;;;;;5072254;28;20039;-78
2024/01/19 01:51:25;;;;;;;1.70;0.60;;;;;;;;;;5054225;28;20047;-79
2024/01/19 01:53:53;;;;;;;1.92;0.45;;;;;;;;;;5058295;28;20138;-78
2024/01/19 01:56:19;;;;;;;4.93;0.90;;;;;;;;;;5057719;28;20425;-78
2024/01/19 01:58:45;;;;;;;3.72;1.10;;;;;;;;;;5067656;28;20044;-78
2024/01/19 02:01:11;;;;;;;2.25;0.63;;;;;;;;;;5056265;28;20555;-79
2024/01/19 02:03:38;;;;;;;4.45;0.80;;;;;;;;;;5040019;28;20040;-79
2024/01/19 02:06:04;;;;;;;6.38;0.88;;;;;;;;;;5056523;28;20115;-80
2024/01/19 02:08:30;;;;;;;3.15;0.85;;;;;;;;;;5074086;28;20032;-80
2024/01/19 02:10:56;;;;;;;2.90;0.70;;;;;;;;;;5073986;28;20046;-80
2024/01/19 02:13:23;;;;;;;4.10;0.70;;;;;;;;;;5075187;28;20044;-81
2024/01/19 02:15:49;;;;;;;5.32;0.90;;;;;;;;;;5056588;28;20067;-80
2024/01/19 02:18:15;;;;;;;2.05;0.82;;;;;;;;;;5039400;28;20044;-80
2024/01/19 02:20:44;;;;;;;0.95;0.50;;;;;;;;;;5037781;28;20063;-80
2024/01/19 02:23:13;;;;;;;5.32;1.10;;;;;;;;;;5075247;28;20045;-80
2024/01/19 02:25:39;;;;;;;5.65;1.42;;;;;;;;;;5069289;28;20101;-80
2024/01/19 02:28:06;;;;;;;1.33;0.70;;;;;;;;;;5070473;28;20901;-80
2024/01/19 02:30:32;;;;;;;6.90;0.98;;;;;;;;;;5057751;28;20043;-80
2024/01/19 02:32:58;;;;;;;10.45;1.55;;;;;;;;;;5060909;28;20039;-80
2024/01/19 02:35:25;;;;;;;4.43;0.73;;;;;;;;;;5072623;28;20062;-81
2024/01/19 02:37:51;;;;;;;3.10;0.60;;;;;;;;;;5052676;28;20118;-80
2024/01/19 02:40:17;;;;;;;3.47;0.70;;;;;;;;;;5050169;28;20571;-80
2024/01/19 02:42:44;;;;;;;2.97;0.90;;;;;;;;;;5035008;28;20045;-80
2024/01/19 02:45:10;;;;;;;5.25;0.82;;;;;;;;;;5054634;28;20031;-80
2024/01/19 02:47:36;;;;;;;4.63;0.80;;;;;;;;;;5040726;28;20525;-80
2024/01/19 02:50:02;;;;;;;8.38;1.05;;;;;;;;;;5042826;28;20031;-80
2024/01/19 02:52:28;;;;;;;4.38;0.80;;;;;;;;;;5055523;28;20542;-80
2024/01/19 02:54:54;;;;;;;4.95;0.73;;;;;;;;;;5053303;28;20071;-78
2024/01/19 02:57:20;;;;;;;9.52;2.33;;;;;;;;;;5071996;28;20169;-79
2024/01/19 02:59:46;;;;;;;7.50;0.73;;;;;;;;;;5066738;28;21410;-78
2024/01/19 03:02:12;;;;;;;6.95;1.00;;;;;;;;;;5055338;28;20032;-79
2024/01/19 03:04:39;;;;;;;8.98;1.05;;;;;;;;;;5055351;28;20031;-80
2024/01/19 03:07:05;;;;;;;5.00;0.88;;;;;;;;;;5055782;28;20063;-79
2024/01/19 03:09:31;;;;;;;5.63;0.82;;;;;;;;;;5052748;28;20032;-79
2024/01/19 03:11:57;;;;;;;9.52;1.42;;;;;;;;;;5039640;28;20111;-80
2024/01/19 03:14:23;;;;;;;2.00;0.90;;;;;;;;;;5038094;28;20411;-79
2024/01/19 03:16:51;;;;;;;2.38;1.05;;;;;;;;;;5034054;28;20036;-85
2024/01/19 03:19:17;;;;;;;6.18;0.98;;;;;;;;;;5041161;28;20052;-86
2024/01/19 03:21:43;;;;;;;3.20;1.10;;;;;;;;;;5055520;28;20291;-83
2024/01/19 03:24:09;;;;;;;4.13;1.10;;;;;;;;;;5054411;28;20384;-86
2024/01/19 03:26:35;;;;;;;4.22;1.50;;;;;;;;;;5035408;28;20036;-84
2024/01/19 03:29:01;;;;;;;10.93;1.13;;;;;;;;;;5056421;28;20047;-80
2024/01/19 03:31:27;;;;;;;5.60;1.38;;;;;;;;;;5058031;28;20044;-82
2024/01/19 03:33:53;;;;;;;2.40;0.73;;;;;;;;;;5075058;28;20446;-84
2024/01/19 03:36:19;;;;;;;8.02;1.20;;;;;;;;;;5057612;28;20043;-86
2024/01/19 03:38:45;;;;;;;4.25;0.98;;;;;;;;;;5054380;28;20081;-86
2024/01/19 03:41:11;;;;;;;4.28;1.00;;;;;;;;;;5037542;28;20488;-83
2024/01/19 03:43:38;;;;;;;3.50;1.25;;;;;;;;;;5074851;28;20126;-87
2024/01/19 03:46:04;;;;;;;4.95;1.13;;;;;;;;;;5056750;28;20050;-86
2024/01/19 03:48:30;;;;;;;8.02;1.92;;;;;;;;;;5072225;28;20047;-85
2024/01/19 03:50:58;;;;;;;3.15;1.00;;;;;;;;;;5041259;28;20082;-85
2024/01/19 03:53:24;;;;;;;6.10;1.55;;;;;;;;;;5060797;28;20036;-79
2024/01/19 03:55:50;;;;;;;6.80;1.30;;;;;;;;;;5062823;28;20054;-86
2024/01/19 03:58:16;;;;;;;7.13;1.42;;;;;;;;;;5059132;28;20243;-85
2024/01/19 04:00:42;;;;;;;5.97;1.40;;;;;;;;;;5042191;28;20591;-79
2024/01/19 04:03:08;;;;;;;14.45;1.65;;;;;;;;;;5080687;28;20039;-86
2024/01/19 04:05:34;;;;;;;6.80;1.75;;;;;;;;;;5078413;28;20104;-82
2024/01/19 04:08:00;;;;;;;4.60;1.50;;;;;;;;;;5081245;28;20043;-85
2024/01/19 04:10:27;;;;;;;4.68;1.38;;;;;;;;;;5060396;28;20123;-86
2024/01/19 04:12:53;;;;;;;7.65;1.27;;;;;;;;;;5075879;28;20079;-85
2024/01/19 04:15:19;;;;;;;8.70;1.75;;;;;;;;;;5079009;28;20175;-87
2024/01/19 04:17:45;;;;;;;7.13;1.20;;;;;;;;;;5051994;28;20051;-86
2024/01/19 04:20:12;;;;;;;9.43;1.77;;;;;;;;;;5059808;28;20056;-86
2024/01/19 04:22:38;;;;;;;7.15;1.77;;;;;;;;;;5042531;28;20047;-80
2024/01/19 04:25:04;;;;;;;12.13;1.83;;;;;;;;;;5070582;28;20032;-86
2024/01/19 04:27:30;;;;;;;4.47;1.33;;;;;;;;;;5076923;28;20479;-81
2024/01/19 04:29:56;;;;;;;5.53;1.30;;;;;;;;;;5055552;28;20540;-86
2024/01/19 04:32:22;;;;;;;11.75;2.50;;;;;;;;;;5060199;28;20392;-86
2024/01/19 04:34:48;;;;;;;7.55;1.20;;;;;;;;;;5071189;28;20066;-85
2024/01/19 04:37:14;;;;;;;9.18;1.60;;;;;;;;;;5073292;28;20536;-86
2024/01/19 04:39:40;;;;;;;12.13;1.75;;;;;;;;;;5058511;28;20127;-85
2024/01/19 04:42:07;;;;;;;6.90;1.27;;;;;;;;;;5057548;28;20040;-85
2024/01/19 04:44:34;;;;;;;15.73;2.05;;;;;;;;;;5064838;28;20391;-86
2024/01/19 04:47:00;;;;;;;13.27;1.50;;;;;;;;;;5044320;28;20056;-86
2024/01/19 04:49:26;;;;;;;12.00;1.40;;;;;;;;;;5054204;28;20036;-86
2024/01/19 04:51:52;;;;;;;15.05;2.58;;;;;;;;;;5071178;28;20036;-80
2024/01/19 04:54:18;;;;;;;14.65;1.40;;;;;;;;;;5052789;28;20050;-86
2024/01/19 04:56:44;;;;;;;8.95;1.85;;;;;;;;;;5026868;28;20500;-86
2024/01/19 04:59:11;;;;;;;9.68;1.40;;;;;;;;;;5069792;28;20796;-86
2024/01/19 05:01:37;;;;;;;14.60;1.98;;;;;;;;;;5052401;28;20036;-85
2024/01/19 05:04:03;;;;;;;7.97;2.20;;;;;;;;;;5070022;28;20111;-86
2024/01/19 05:06:29;;;;;;;6.65;1.60;;;;;;;;;;5041481;28;20377;-82
2024/01/19 05:08:55;;;;;;;8.10;1.42;;;;;;;;;;5068759;28;20040;-86
2024/01/19 05:11:22;;;;;;;13.95;2.22;;;;;;;;;;5068059;28;20062;-86
2024/01/19 05:13:48;;;;;;;15.10;1.55;;;;;;;;;;5057152;28;20040;-81
2024/01/19 05:16:14;;;;;;;18.77;1.90;;;;;;;;;;5072699;28;20075;-86
2024/01/19 05:18:40;;;;;;;20.92;2.58;;;;;;;;;;5039689;28;20059;-85
2024/01/19 05:21:06;;;;;;;11.05;1.73;;;;;;;;;;5075535;28;20054;-82
2024/01/19 05:23:32;;;;;;;11.88;1.60;;;;;;;;;;5037083;28;20478;-86
2024/01/19 05:25:58;;;;;;;10.18;1.10;;;;;;;;;;5056551;28;20063;-87
2024/01/19 05:28:25;;;;;;;11.15;1.38;;;;;;;;;;5051962;28;20582;-85
2024/01/19 05:30:51;;;;;;;12.73;1.77;;;;;;;;;;5071223;28;20556;-86
2024/01/19 05:33:17;;;;;;;14.27;2.03;;;;;;;;;;5036869;28;20044;-80
2024/01/19 05:35:43;;;;;;;10.15;1.40;;;;;;;;;;5031080;28;20043;-78
2024/01/19 05:38:09;;;;;;;10.55;1.60;;;;;;;;;;5050540;28;20078;-78
2024/01/19 05:40:35;;;;;;;20.52;1.98;;;;;;;;;;5065518;28;20402;-83
2024/01/19 05:43:01;;;;;;;14.10;1.70;;;;;;;;;;5062014;28;20043;-81
2024/01/19 05:45:27;;;;;;;10.98;1.73;;;;;;;;;;5050103;28;20040;-85
2024/01/19 05:47:53;;;;;;;8.02;1.40;;;;;;;;;;5069269;28;20124;-85
2024/01/19 05:50:19;;;;;;;10.02;1.73;;;;;;;;;;5036915;28;20178;-84
2024/01/19 05:52:45;;;;;;;12.35;2.47;;;;;;;;;;5032522;28;20036;-86
2024/01/19 05:55:12;;;;;;;10.88;1.83;;;;;;;;;;5069729;28;20528;-86
2024/01/19 05:57:38;;;;;;;12.90;1.92;;;;;;;;;;5052361;28;20032;-86
2024/01/19 06:00:05;;;;;;;9.82;2.05;;;;;;;;;;5054125;28;20036;-79
2024/01/19 06:02:31;;;;;;;12.38;1.80;;;;;;;;;;5069153;28;20383;-83
2024/01/19 06:04:59;;;;;;;18.40;2.00;;;;;;;;;;5044038;28;20032;-83
2024/01/19 06:07:25;;;;;;;9.02;1.45;;;;;;;;;;5062243;28;20036;-85
2024/01/19 06:09:52;;;;;;;5.68;1.10;;;;;;;;;;5056082;28;20454;-85
2024/01/19 06:12:18;;;;;;;6.05;1.00;;;;;;;;;;5071406;28;20036;-85
2024/01/19 06:14:44;;;;;;;17.00;1.60;;;;;;;;;;5070472;28;20083;-80
2024/01/19 06:17:11;;;;;;;11.10;1.15;;;;;;;;;;5055309;28;20040;-86
2024/01/19 06:19:38;;;;;;;9.80;1.45;;;;;;;;;;5034673;28;20075;-85
2024/01/19 06:22:04;;;;;;;13.13;1.33;;;;;;;;;;5032975;28;20052;-81
2024/01/19 06:24:35;;;;;;;12.40;2.17;;;;;;;;;;5054694;28;20400;-83
2024/01/19 06:27:01;;;;;;;6.97;1.45;;;;;;;;;;5029443;28;20040;-81
2024/01/19 06:29:30;;;;;;;6.53;0.90;;;;;;;;;;5046196;28;20037;-84
2024/01/19 06:31:56;;;;;;;4.47;1.27;;;;;;;;;;5035469;28;20047;-84
2024/01/19 06:34:22;;;;;;;13.50;2.72;;;;;;;;;;5054521;28;20041;-82
2024/01/19 06:36:48;;;;;;;7.63;0.95;;;;;;;;;;5018156;28;20110;-85
2024/01/19 06:39:14;;;;;;;4.40;1.13;;;;;;;;;;5050325;28;20147;-84
2024/01/19 06:41:44;;;;;;;14.77;2.03;;;;;;;;;;5052167;28;20033;-85
2024/01/19 06:44:13;;;;;;;6.72;1.10;;;;;;;;;;5047325;28;20036;-83
2024/01/19 06:46:46;;;;;;;3.85;1.33;;;;;;;;;;5032421;28;20032;-78
2024/01/19 06:49:12;;;;;;;4.97;1.20;;;;;;;;;;5053937;28;20048;-78
2024/01/19 06:51:38;;;;;;;10.77;1.85;;;;;;;;;;5053678;28;20032;-79
2024/01/19 06:54:04;;;;;;;9.48;2.33;;;;;;;;;;5052747;28;20040;-79
2024/01/19 06:56:30;;;;;;;5.82;1.27;;;;;;;;;;5019297;28;20118;-78
2024/01/19 06:58:56;;;;;;;5.72;1.00;;;;;;;;;;5033706;28;20033;-79
2024/01/19 07:01:25;;;;;;;10.30;1.30;;;;;;;;;;5051070;28;20083;-80
2024/01/19 07:03:51;;;;;;;8.98;1.15;;;;;;;;;;5047442;28;20056;-78
2024/01/19 07:06:17;;;;;;;11.57;1.10;;;;;;;;;;5046057;28;20036;-80
2024/01/19 07:08:44;;;;;;;6.82;1.25;;;;;;;;;;5035700;28;20423;-79
2024/01/19 07:11:11;;;;;;;13.63;2.08;;;;;;;;;;5053032;28;20115;-79
2024/01/19 07:13:37;;;;;;;11.52;1.92;;;;;;;;;;5036667;28;20048;-78
2024/01/19 07:16:03;;;;;;;8.27;2.03;;;;;;;;;;5033979;28;20029;-79
2024/01/19 07:18:29;;;;;;;8.98;1.77;;;;;;;;;;5040642;28;20151;-79
2024/01/19 07:20:55;;;;;;;8.10;1.50;;;;;;;;;;5051047;28;20051;-79
2024/01/19 07:23:21;;;;;;;5.38;1.10;;;;;;;;;;5045058;28;20506;-78
2024/01/19 07:25:47;;;;;;;10.25;1.30;;;;;;;;;;5035495;28;20112;-78
2024/01/19 07:28:14;;;;;;;6.00;1.33;;;;;;;;;;5042019;28;20050;-79
2024/01/19 07:30:40;;;;;;;4.13;1.27;;;;;;;;;;5051405;28;20465;-76
2024/01/19 07:33:06;;;;;;;4.63;1.35;;;;;;;;;;5038871;28;20043;-77
2024/01/19 07:35:32;;;;;;;6.22;1.55;;;;;;;;;;5055702;28;20395;-79
2024/01/19 07:37:58;;;;;;;3.90;1.23;;;;;;;;;;5071732;28;20055;-79
2024/01/19 07:40:24;;;;;;;4.30;1.23;;;;;;;;;;5058922;28;20089;-79
2024/01/19 07:42:51;;;;;;;11.32;1.33;;;;;;;;;;5058097;28;20031;-79
2024/01/19 07:45:17;;;;;;;6.65;1.30;;;;;;;;;;5052951;28;20105;-78
2024/01/19 07:47:43;;;;;;;5.38;1.17;;;;;;;;;;5074574;28;20043;-79
2024/01/19 07:50:10;;;;;;;7.22;1.48;;;;;;;;;;5071001;28;20471;-80
2024/01/19 07:52:36;;;;;;;4.90;0.90;;;;;;;;;;5073174;28;20039;-79
2024/01/19 07:55:03;;;;;;;5.15;1.10;;;;;;;;;;5057738;28;20181;-80
2024/01/19 07:57:29;;;;;;;2.88;0.98;;;;;;;;;;5059541;28;20122;-83
2024/01/19 07:59:55;;;;;;;5.63;1.77;;;;;;;;;;5057299;28;20040;-82
2024/01/19 08:02:22;;;;;;;5.30;1.67;;;;;;;;;;5054416;28;20039;-82
2024/01/19 08:04:48;;;;;;;4.97;1.38;;;;;;;;;;5060687;28;20376;-81
2024/01/19 08:07:14;;;;;;;4.30;1.63;;;;;;;;;;5056202;28;20092;-81
2024/01/19 08:09:40;;;;;;;7.50;1.58;;;;;;;;;;5072971;28;20047;-83
2024/01/19 08:12:06;;;;;;;7.30;1.85;;;;;;;;;;5070966;28;20044;-83
2024/01/19 08:14:33;;;;;;;5.68;2.33;;;;;;;;;;5067621;28;20044;-81
2024/01/19 08:16:59;;;;;;;9.02;3.35;;;;;;;;;;5050077;28;20496;-82
2024/01/19 08:19:25;;;;;;;11.02;3.63;;;;;;;;;;5072523;28;20496;-83
2024/01/19 08:21:51;;;;;;;8.90;2.03;;;;;;;;;;5073274;28;20106;-82
2024/01/19 08:24:17;;;;;;;5.85;1.60;;;;;;;;;;5068269;28;20058;-81
2024/01/19 08:26:43;;;;;;;10.77;1.83;;;;;;;;;;5061866;28;20495;-79
2024/01/19 08:29:09;;;;;;;5.93;1.73;;;;;;;;;;5043806;28;20404;-80
2024/01/19 08:31:35;;;;;;;5.53;1.55;;;;;;;;;;5069787;28;20112;-83
2024/01/19 08:34:01;;;;;;;10.73;2.33;;;;;;;;;;5062274;28;20544;-83
2024/01/19 08:36:27;;;;;;;8.43;1.60;;;;;;;;;;5073803;28;20071;-82
2024/01/19 08:38:54;;;;;;;15.23;2.53;;;;;;;;;;5064889;28;20039;-80
2024/01/19 08:41:20;;;;;;;12.40;2.15;;;;;;;;;;5042971;28;20405;-82
2024/01/19 08:43:46;;;;;;;4.63;1.60;;;;;;;;;;5074158;28;20043;-82
2024/01/19 08:46:13;;;;;;;9.38;1.88;;;;;;;;;;5052928;28;20062;-81
2024/01/19 08:48:39;;;;;;;11.98;2.47;;;;;;;;;;5057893;28;20047;-82
2024/01/19 08:51:05;;;;;;;6.13;1.33;;;;;;;;;;5062579;28;20044;-83
2024/01/19 08:53:32;;;;;;;6.55;1.50;;;;;;;;;;5057584;28;20033;-82
2024/01/19 08:55:58;;;;;;;8.10;2.00;;;;;;;;;;5076628;28;20062;-83
2024/01/19 08:58:24;;;;;;;7.30;2.33;;;;;;;;;;5074465;28;20052;-83
2024/01/19 09:00:51;;;;;;;6.18;1.85;;;;;;;;;;5071584;28;20032;-82
2024/01/19 09:03:17;;;;;;;5.63;1.70;;;;;;;;;;5056403;28;20537;-80
2024/01/19 09:05:45;;;;;;;4.07;1.20;;;;;;;;;;5072525;28;20151;-81
2024/01/19 09:08:11;;;;;;;13.27;2.20;;;;;;;;;;5037897;28;20047;-82
2024/01/19 09:10:37;;;;;;;9.40;2.67;;;;;;;;;;5042337;28;20086;-82
2024/01/19 09:13:04;;;;;;;5.82;1.38;;;;;;;;;;5072871;28;20040;-82
2024/01/19 09:15:30;;;;;;;13.00;2.13;;;;;;;;;;5071830;28;20078;-83
2024/01/19 09:17:56;;;;;;;13.43;1.95;;;;;;;;;;5070064;28;20047;-84
2024/01/19 09:20:24;;;;;;;4.68;1.25;;;;;;;;;;5057172;28;20083;-83
2024/01/19 09:22:51;;;;;;;9.18;2.20;;;;;;;;;;5060539;28;20707;-83
2024/01/19 09:25:17;;;;;;;12.45;2.38;;;;;;;;;;5078061;28;20550;-83
2024/01/19 09:27:43;;;;;;;11.55;1.83;;;;;;;;;;5041006;28;20028;-83
2024/01/19 09:30:10;;;;;;;12.68;2.20;;;;;;;;;;5057702;28;20818;-82
2024/01/19 09:32:40;;;;;;;7.43;1.98;;;;;;;;;;5042660;28;20075;-83
2024/01/19 09:35:06;;;;;;;9.05;3.05;;;;;;;;;;5054695;28;20555;-83
2024/01/19 09:37:32;;;;;;;13.35;2.75;;;;;;;;;;5078745;28;20036;-82
2024/01/19 09:39:58;;;;;;;14.02;2.53;;;;;;;;;;5056182;28;20032;-82
2024/01/19 09:42:28;;;;;;;7.20;1.88;;;;;;;;;;5054733;28;20032;-84
2024/01/19 09:45:02;;;;;;;8.23;2.22;;;;;;;;;;5077761;28;20043;-82
2024/01/19 09:47:36;;;;;;;13.13;2.53;;;;;;;;;;5070826;28;20055;-82
2024/01/19 09:50:04;;;;;;;11.90;3.35;;;;;;;;;;5069558;28;20043;-82
2024/01/19 09:52:30;;;;;;;14.18;2.53;;;;;;;;;;5055728;28;20392;-85
2024/01/19 09:54:56;;;;;;;13.13;3.92;;;;;;;;;;5063576;28;20483;-86
2024/01/19 09:57:22;;;;;;;8.77;2.35;;;;;;;;;;5043489;28;20357;-83
2024/01/19 09:59:48;;;;;;;7.60;2.10;;;;;;;;;;5061531;28;20499;-82
2024/01/19 10:02:20;;;;;;;17.52;2.35;;;;;;;;;;5057291;28;20036;-80
2024/01/19 10:04:46;;;;;;;10.13;3.20;;;;;;;;;;5057479;28;20142;-83
2024/01/19 10:07:12;;;;;;;8.07;1.77;;;;;;;;;;5054148;28;20040;-78
2024/01/19 10:09:40;;;;;;;9.35;1.98;;;;;;;;;;5057869;28;20083;-78
2024/01/19 10:12:07;;;;;;;7.75;1.70;;;;;;;;;;5039612;28;20040;-77
2024/01/19 10:14:33;;;;;;;15.23;1.83;;;;;;;;;;5045170;28;20047;-78
2024/01/19 10:16:59;;;;;;;9.25;2.05;;;;;;;;;;5075443;28;20040;-79
2024/01/19 10:19:25;;;;;;;17.00;2.03;;;;;;;;;;5061198;28;20135;-79
2024/01/19 10:21:51;;;;;;;9.38;1.92;;;;;;;;;;5054775;28;20564;-78
2024/01/19 10:24:19;;;;;;;16.13;1.98;;;;;;;;;;5069120;28;20052;-79
2024/01/19 10:26:52;;;;;;;3.78;1.13;;;;;;;;;;5054226;28;20036;-79
2024/01/19 10:29:18;;;;;;;9.57;2.20;;;;;;;;;;5067942;28;20040;-79
2024/01/19 10:31:48;;;;;;;10.80;1.92;;;;;;;;;;5074966;28;20511;-79
2024/01/19 10:34:22;;;;;;;7.47;1.70;;;;;;;;;;5058232;28;21699;-78
2024/01/19 10:36:48;;;;;;;10.75;1.95;;;;;;;;;;5047162;28;20071;-79
2024/01/19 10:39:20;;;;;;;4.78;1.23;;;;;;;;;;5050530;28;20040;-80
2024/01/19 10:41:47;;;;;;;5.53;1.10;;;;;;;;;;5055622;28;20139;-79
2024/01/19 10:44:19;;;;;;;9.65;1.73;;;;;;;;;;5073178;28;20495;-79
2024/01/19 10:46:45;;;;;;;13.10;2.00;;;;;;;;;;5057698;28;20038;-79
2024/01/19 10:49:15;;;;;;;7.93;2.50;;;;;;;;;;5057238;28;20464;-80
2024/01/19 10:51:45;;;;;;;12.40;2.33;;;;;;;;;;5060157;28;20051;-80
2024/01/19 10:54:23;;;;;;;14.02;2.47;;;;;;;;;;5074919;28;20142;-79
2024/01/19 10:57:09;;;;;;;11.27;1.85;;;;;;;;;;5051330;28;20515;-81
2024/01/19 10:59:35;;;;;;;13.88;2.83;;;;;;;;;;5069850;28;20040;-80
2024/01/19 11:02:04;;;;;;;16.10;2.10;;;;;;;;;;5034254;28;20040;-79
2024/01/19 11:04:32;;;;;;;13.05;2.15;;;;;;;;;;5075517;28;20134;-79
2024/01/19 11:06:59;;;;;;;12.10;2.45;;;;;;;;;;5054166;28;20070;-79
2024/01/19 11:09:25;;;;;;;12.20;2.28;;;;;;;;;;5053285;28;20391;-79
2024/01/19 11:11:54;;;;;;;12.75;1.70;;;;;;;;;;5052883;28;20127;-80
2024/01/19 11:14:22;;;;;;;7.05;1.38;;;;;;;;;;5075124;28;20046;-80
2024/01/19 11:16:49;;;;;;;14.50;1.70;;;;;;;;;;5051006;28;20046;-78
2024/01/19 11:19:17;;;;;;;14.93;1.95;;;;;;;;;;5094228;28;20570;-79
2024/01/19 11:21:45;;;;;;;13.02;1.98;;;;;;;;;;5049259;28;20518;-78
2024/01/19 11:24:14;;;;;;;10.50;1.52;;;;;;;;;;5073778;28;20090;-79
2024/01/19 11:26:46;;;;;;;11.93;2.85;;;;;;;;;;5073556;28;20036;-79
2024/01/19 11:29:22;;;;;;;9.48;1.48;;;;;;;;;;5055625;28;20395;-80
2024/01/19 11:31:50;;;;;;;9.15;1.83;;;;;;;;;;5060978;28;20546;-81
2024/01/19 11:34:40;;;;;;;6.55;1.60;;;5.60;93.20;;;;;;5055027;28;20044;-80
2024/01/19 11:37:06;;;;;;;12.93;3.00;;;;;;;;;;5073295;28;20153;-80
2024/01/19 11:39:42;;;;;;;8.93;1.75;;;;;;;;;;5071965;28;20069;-80
2024/01/19 11:42:09;;;;;;;6.25;1.20;;;;;;;;;;5050009;28;20119;-79
2024/01/19 11:44:43;;;;;;;12.70;1.73;;;;;;;;;;5054255;28;20032;-79
2024/01/19 11:47:09;;;;;;;9.15;1.65;;;;;;;;;;5053698;28;20036;-81
2024/01/19 11:49:45;;;;;;;7.82;1.75;;;;;;;;;;5072152;28;20500;-80
2024/01/19 11:52:12;;;;;;;12.00;2.70;;;;;;;;;;5072825;28;20055;-80
2024/01/19 11:54:38;;;;;;;15.40;3.38;;;;;;;;;;5053468;28;20146;-79
2024/01/19 11:57:16;;;;;;;11.32;2.15;;;;;;;;;;5061741;28;20391;-79
2024/01/19 11:59:43;;;;;;;7.05;1.73;;;;;;;;;;5072867;28;20101;-80
2024/01/19 12:02:20;;;;;;;8.40;2.38;;;;;;;;;;5060069;28;20039;-80
2024/01/19 12:04:47;;;;;;;13.13;1.60;;;;;;;;;;5073569;28;20043;-81
2024/01/19 12:07:22;;;;;;;9.93;1.30;;;;;;;;;;5065191;28;20119;-81
2024/01/19 12:10:07;;;;;;;7.22;1.67;;;;;;;;;;5067541;28;20071;-81
2024/01/19 12:12:35;;;;;;;8.07;1.63;;;;;;;;;;5072203;28;20043;-79
2024/01/19 12:15:04;;;;;;;7.55;1.90;;;;;;;;;;5065263;28;20068;-82
2024/01/19 12:17:31;;;;;;;7.88;1.70;;;;;;;;;;5055196;28;20040;-81
2024/01/19 12:19:58;;;;;;;9.80;1.50;;;;;;;;;;5060737;28;20446;-82
2024/01/19 12:22:24;;;;;;;4.38;1.08;;;;;;;;;;5065131;28;20040;-82
2024/01/19 12:24:50;;;;;;;11.43;1.90;;;;;;;;;;5059659;28;20032;-82
2024/01/19 12:27:23;;;;;;;8.07;1.27;;;;;;;;;;5057526;28;20048;-82
2024/01/19 12:29:49;;;;;;;10.40;1.98;;;;;;;;;;5070602;28;20078;-82
2024/01/19 12:32:18;;;;;;;13.93;1.48;;;;;;;;;;5061911;28;20054;-80
2024/01/19 12:34:57;;;;;;;13.55;2.42;;;;;;;;;;5078629;28;20526;-84
2024/01/19 12:37:23;;;;;;;7.68;2.00;;;;;;;;;;5073497;28;20094;-80
2024/01/19 12:39:49;;;;;;;6.97;1.70;;;;;;;;;;5094353;28;20067;-79
2024/01/19 12:42:15;;;;;;;6.30;1.50;;;;;;;;;;5060595;28;20036;-80
2024/01/19 12:44:42;;;;;;;6.75;1.75;;;;;;;;;;5037960;28;20132;-80
2024/01/19 12:47:08;;;;;;;8.63;1.40;;;;;;;;;;5045789;28;20064;-79
2024/01/19 12:49:34;;;;;;;5.25;0.93;;;;;;;;;;5058473;28;20490;-79
2024/01/19 12:52:00;;;;;;;3.65;1.52;;;;;;;;;;5059273;28;20130;-80
2024/01/19 12:54:41;;;;;;;4.38;1.20;;;;;;;;;;5072740;28;20442;-81
2024/01/19 12:57:15;;;;;;;5.43;1.50;;;;;;;;;;5087499;28;20048;-82
2024/01/19 12:59:41;;;;;;;5.10;1.48;;;;;;;;;;5062228;28;20067;-81
2024/01/19 13:02:10;;;;;;;7.30;1.35;;;;;;;;;;5079668;28;20040;-81
2024/01/19 13:04:36;;;;;;;9.43;1.77;;;;;;;;;;5091236;28;20072;-81
2024/01/19 13:07:03;;;;;;;11.48;2.25;;;;;;;;;;5075656;28;20051;-81
2024/01/19 13:09:29;;;;;;;3.95;1.17;;;;;;;;;;5053932;28;20035;-80
2024/01/19 13:12:11;;;;;;;10.98;1.65;;;;;;;;;;5055571;28;20033;-80
2024/01/19 13:14:37;;;;;;;11.00;1.45;;;;;;;;;;5071052;28;20074;-80
2024/01/19 13:17:06;;;;;;;8.25;2.22;;;;;;;;;;5060544;28;20130;-80
2024/01/19 13:19:45;;;;;;;9.57;1.77;;;;;;;;;;5057608;28;20040;-79
2024/01/19 13:22:13;;;;;;;7.10;1.75;;;;;;;;;;5053678;28;20075;-79
2024/01/19 13:24:40;;;;;;;11.32;1.23;;;;;;;;;;5051022;28;20122;-80
2024/01/19 13:27:06;;;;;;;8.05;1.38;;;;;;;;;;5060007;28;20430;-80
2024/01/19 13:29:32;;;;;;;5.47;1.40;;;;;;;;;;5041496;28;20036;-79
2024/01/19 13:31:58;;;;;;;5.95;1.20;;;;;;;;;;5056524;28;20040;-79
2024/01/19 13:34:27;;;;;;;8.77;1.65;;;;;;;;;;5057736;28;20122;-79
2024/01/19 13:36:53;;;;;;;6.97;1.60;;;;;;;;;;5056297;28;20047;-79
2024/01/19 13:39:19;;;;;;;10.85;1.40;;;;;;;;;;5073805;28;20410;-80
2024/01/19 13:41:45;;;;;;;8.20;3.05;;;;;;;;;;5053634;28;20048;-78
2024/01/19 13:44:11;;;;;;;4.82;2.30;;;;;;;;;;5057375;28;20036;-80
2024/01/19 13:46:37;;;;;;;11.20;2.03;;;;;;;;;;5058417;28;20059;-79
2024/01/19 13:49:04;;;;;;;6.43;1.67;;;;;;;;;;5039082;28;20097;-81
2024/01/19 13:51:30;;;;;;;9.85;1.50;;;;;;;;;;5056016;28;20044;-81
2024/01/19 13:53:58;;;;;;;5.60;1.30;;;;;;;;;;5076555;28;20032;-80
2024/01/19 13:56:24;;;;;;;4.95;0.82;;;;;;;;;;5071873;28;20047;-79
2024/01/19 13:58:50;;;;;;;12.02;2.97;;;;;;;;;;5076098;28;20028;-79
2024/01/19 14:01:17;;;;;;;6.40;0.95;;;;;;;;;;5053380;28;20518;-79
2024/01/19 14:03:43;;;;;;;9.18;1.30;;;;;;;;;;5075320;28;20684;-80
2024/01/19 14:06:13;;;;;;;5.43;1.27;;;;;;;;;;5055777;28;20031;-79
2024/01/19 14:08:39;;;;;;;4.97;0.77;;;;;;;;;;5073043;28;20055;-79
2024/01/19 14:11:06;;;;;;;5.40;1.25;;;;;;;;;;5058463;28;20063;-80
2024/01/19 14:13:33;;;;;;;6.07;1.20;;;;;;;;;;5074720;28;20114;-79
2024/01/19 14:16:01;;;;;;;4.22;1.40;;;;;;;;;;5039749;28;20036;-78
2024/01/19 14:18:27;;;;;;;11.73;1.67;;;;;;;;;;5074711;28;20035;-78
2024/01/19 14:20:55;;;;;;;4.97;1.17;;;;;;;;;;5061111;28;20500;-80
2024/01/19 14:23:21;;;;;;;4.35;1.23;;;;;;;;;;5057492;28;20483;-79
2024/01/19 14:25:47;;;;;;;9.77;1.42;;;;;;;;;;5074871;28;20071;-80
2024/01/19 14:28:14;;;;;;;6.38;1.48;;;;;;;;;;5046001;28;20491;-79
2024/01/19 14:30:42;;;;;;;6.75;1.42;;;;;;;;;;5043586;28;20045;-78
2024/01/19 14:33:08;;;;;;;8.63;1.90;;;;;;;;;;5058528;28;20036;-79
2024/01/19 14:35:35;;;;;;;9.10;1.58;;;;;;;;;;5060546;28;20480;-79
2024/01/19 14:38:02;;;;;;;8.77;1.65;;;;;;;;;;5047818;28;20472;-78